Time;durP1;ratioP1;P1;durP2;ratioP2;P2;SDS_P1;SDS_P2;PMS_P1;PMS_P2;Temp;Humidity;BMP_temperature;BMP_pressure;BME280_temperature;BME280_humidity;BME280_pressure;Samples;Min_cycle;Max_cycle;Signal;HPM_P1;HPM_P2
2023/04/02 14:26:38;;;;;;;8.30;2.10;;;;;;;10.29;61.69;100082.66;140417;1298;641715;-77
2023/04/02 14:30:27;;;;;;;3.40;2.60;;;;;;;10.30;61.90;100093.27;144016;1271;107587;-82
2023/04/02 14:34:12;;;;;;;3.00;2.20;;;;;;;10.38;61.83;100096.05;143464;1279;107445;-76
2023/04/02 14:37:50;;;;;;;2.40;1.60;;;;;;;10.51;61.64;100098.38;143576;1273;108242;-81
2023/04/02 14:41:29;;;;;;;1.60;1.30;;;;;;;10.67;61.56;100105.65;143692;1273;140321;-72
2023/04/02 14:45:33;;;;;;;2.40;1.40;;;;;;;10.86;61.44;100108.59;144696;1263;108401;-73
2023/04/02 14:48:59;;;;;;;1.50;1.20;;;;;;;11.07;61.07;100108.27;144160;1271;107536;-72
2023/04/02 14:52:32;;;;;;;2.20;1.50;;;;;;;11.23;60.74;100113.39;143759;1273;108505;-77
2023/04/02 14:55:55;;;;;;;1.80;1.10;;;;;;;11.36;60.27;100117.61;144156;1265;108291;-72
2023/04/02 14:59:43;;;;;;;3.00;1.20;;;;;;;11.47;59.81;100118.32;143999;1269;94401;-76
2023/04/02 15:03:10;;;;;;;5.40;1.40;;;;;;;11.58;59.25;100126.33;144043;1270;108322;-76
2023/04/02 15:06:38;;;;;;;2.00;1.20;;;;;;;11.67;58.89;100134.63;144094;1267;107348;-71
2023/04/02 15:10:38;;;;;;;4.50;1.30;;;;;;;11.74;58.44;100135.59;144095;1278;107714;-78
2023/04/02 15:14:17;;;;;;;1.80;1.20;;;;;;;11.80;57.95;100144.23;144087;1269;107547;-79
2023/04/02 15:17:41;;;;;;;1.40;1.30;;;;;;;11.85;57.70;100147.48;144120;1267;108403;-73
2023/04/02 15:21:21;;;;;;;2.80;1.30;;;;;;;11.88;57.22;100161.27;143961;1273;108503;-78
2023/04/02 15:25:21;;;;;;;2.30;1.30;;;;;;;11.90;56.96;100165.65;144182;1270;108068;-76
2023/04/02 15:29:08;;;;;;;2.60;1.30;;;;;;;11.90;56.73;100171.57;144706;1264;107579;-81
2023/04/02 15:32:49;;;;;;;1.20;1.10;;;;;;;11.89;56.55;100173.99;144749;1264;107749;-74
2023/04/02 15:36:20;;;;;;;1.40;1.30;;;;;;;11.89;56.35;100178.35;144526;1273;95308;-80
2023/04/02 15:39:55;;;;;;;1.20;1.10;;;;;;;11.89;56.23;100184.45;144546;1264;107719;-73
2023/04/02 15:43:38;;;;;;;2.00;1.10;;;;;;;11.89;55.92;100186.36;144368;1260;108065;-71
2023/04/02 15:47:22;;;;;;;3.50;1.10;;;;;;;11.87;55.75;100189.98;144407;1264;108504;-72
2023/04/02 15:50:49;;;;;;;1.50;1.00;;;;;;;11.87;55.37;100201.30;144594;1260;108516;-77
2023/04/02 15:54:14;;;;;;;1.20;1.10;;;;;;;11.85;55.56;100206.14;144665;1258;107476;-77
2023/04/02 15:58:16;;;;;;;1.10;1.00;;;;;;;11.82;55.21;100209.21;144697;1259;108461;-81
2023/04/02 16:02:01;;;;;;;1.20;1.10;;;;;;;11.79;55.10;100215.44;144689;1260;108226;-79
2023/04/02 16:05:46;;;;;;;1.20;1.10;;;;;;;11.76;55.01;100220.61;144538;1271;108619;-80
2023/04/02 16:09:36;;;;;;;1.00;0.90;;;;;;;11.74;54.95;100225.79;144510;1264;108316;-75
2023/04/02 16:13:01;;;;;;;1.50;1.20;;;;;;;11.72;54.82;100236.90;144643;1263;108910;-77
2023/04/02 16:16:33;;;;;;;1.10;0.90;;;;;;;11.69;54.73;100236.86;144635;1268;96127;-78
2023/04/02 16:20:26;;;;;;;0.90;0.90;;;;;;;11.67;54.62;100247.08;144587;1263;108014;-77
2023/04/02 16:23:48;;;;;;;1.30;1.20;;;;;;;11.64;54.52;100248.09;144727;1260;108331;-79
2023/04/02 16:27:41;;;;;;;1.80;1.10;;;;;;;11.61;54.48;100253.23;144713;1262;108545;-77
2023/04/02 16:31:19;;;;;;;1.40;1.30;;;;;;;11.58;54.39;100259.99;144811;1258;107080;-79
2023/04/02 16:35:25;;;;;;;1.70;1.10;;;;;;;11.56;54.15;100267.61;144897;1260;107595;-79
2023/04/02 16:39:05;;;;;;;1.60;1.40;;;;;;;11.52;54.24;100274.34;145201;1260;108513;-73
2023/04/02 16:42:49;;;;;;;1.50;1.30;;;;;;;11.50;54.35;100278.30;144865;1277;106503;-73
2023/04/02 16:46:19;;;;;;;1.90;1.20;;;;;;;11.48;54.19;100282.95;144425;1267;108630;-81
2023/04/02 16:50:18;;;;;;;1.20;1.10;;;;;;;11.44;54.31;100288.80;144463;1262;108278;-73
2023/04/02 16:54:07;;;;;;;1.70;1.10;;;;;;;11.42;54.06;100294.33;144545;1264;107489;-72
2023/04/02 16:58:01;;;;;;;1.90;1.60;;;;;;;11.39;54.12;100299.84;144525;1257;107567;-71
2023/04/02 17:01:42;;;;;;;1.90;1.40;;;;;;;11.36;54.02;100302.58;144494;1264;108192;-72
2023/04/02 17:05:34;;;;;;;1.50;1.20;;;;;;;11.34;53.98;100306.73;144590;1260;107670;-72
2023/04/02 17:09:50;;;;;;;1.30;1.10;;;;;;;11.33;54.04;100309.30;143874;1265;108372;-73
2023/04/02 17:13:43;;;;;;;1.30;1.20;;;;;;;11.31;53.85;100310.50;143266;1276;107418;-72
2023/04/02 17:17:11;;;;;;;1.70;1.40;;;;;;;11.30;53.80;100317.59;143179;1276;107741;-74
2023/04/02 17:20:32;;;;;;;1.90;1.20;;;;;;;11.28;53.66;100320.34;143185;1273;108172;-74
2023/04/02 17:24:05;;;;;;;1.40;1.30;;;;;;;11.27;53.75;100325.02;143250;1277;108087;-74
2023/04/02 17:27:32;;;;;;;2.60;1.60;;;;;;;11.25;53.63;100322.73;143323;1274;107500;-72
2023/04/02 17:31:00;;;;;;;1.50;1.20;;;;;;;11.24;53.59;100327.40;143287;1277;108398;-83
2023/04/02 17:34:24;;;;;;;2.00;1.30;;;;;;;11.22;53.65;100327.88;143357;1272;95425;-73
2023/04/02 17:38:39;;;;;;;1.60;1.40;;;;;;;11.21;53.59;100332.91;142986;1274;107219;-80
2023/04/02 17:42:11;;;;;;;1.50;1.00;;;;;;;11.20;53.54;100343.48;142958;1283;108457;-74
2023/04/02 17:46:19;;;;;;;1.70;1.30;;;;;;;11.18;53.67;100352.52;143251;1267;108666;-71
2023/04/02 17:50:09;;;;;;;2.40;1.60;;;;;;;11.17;53.48;100355.09;144474;1257;107841;-73
2023/04/02 17:53:54;;;;;;;1.50;1.40;;;;;;;11.16;53.70;100362.19;144422;1258;108901;-73
2023/04/02 17:58:00;;;;;;;1.80;1.50;;;;;;;11.14;53.70;100367.56;144373;1263;107155;-71
2023/04/02 18:01:51;;;;;;;2.40;1.80;;;;;;;11.14;53.62;100367.17;144625;1259;108565;-73
2023/04/02 18:05:31;;;;;;;2.60;1.60;;;;;;;11.12;53.55;100365.94;144632;1262;107278;-74
2023/04/02 18:09:05;;;;;;;1.60;1.30;;;;;;;11.11;53.63;100370.97;144594;1257;108409;-72
2023/04/02 18:12:31;;;;;;;2.80;1.70;;;;;;;11.10;53.50;100375.99;144608;1257;107465;-74
2023/04/02 18:15:57;;;;;;;2.30;1.70;;;;;;;11.10;53.67;100377.72;144446;1265;107447;-71
2023/04/02 18:19:34;;;;;;;1.60;1.30;;;;;;;11.10;53.54;100378.41;144480;1261;108391;-75
2023/04/02 18:23:20;;;;;;;2.20;1.60;;;;;;;11.09;53.37;100383.45;144495;1265;108235;-73
2023/04/02 18:27:15;;;;;;;1.60;1.40;;;;;;;11.09;53.32;100387.27;144712;1262;108532;-75
2023/04/02 18:30:57;;;;;;;1.70;1.40;;;;;;;11.09;53.25;100391.29;144041;1268;108631;-77
2023/04/02 18:34:43;;;;;;;2.60;1.70;;;;;;;11.09;53.46;100392.33;144009;1270;108869;-72
2023/04/02 18:38:17;;;;;;;2.30;1.60;;;;;;;11.10;53.45;100398.23;143939;1270;108672;-73
2023/04/02 18:42:32;;;;;;;3.10;1.90;;;;;;;11.10;53.32;100400.69;143973;1266;107003;-75
2023/04/02 18:46:18;;;;;;;2.80;1.10;;;;;;;11.10;53.08;100409.55;143544;1274;107485;-72
2023/04/02 18:49:50;;;;;;;4.00;1.60;;;;;;;11.11;53.11;100417.07;143364;1271;108137;-74
2023/04/02 18:53:17;;;;;;;2.30;1.90;;;;;;;11.11;53.06;100423.86;143637;1274;107709;-76
2023/04/02 18:56:44;;;;;;;2.10;1.20;;;;;;;11.11;52.99;100423.69;143538;1276;108548;-72
2023/04/02 19:00:26;;;;;;;1.80;1.40;;;;;;;11.11;52.95;100425.08;143150;1276;108402;-76
2023/04/02 19:03:56;;;;;;;2.90;1.40;;;;;;;11.13;52.94;100428.92;143274;1276;108851;-73
2023/04/02 19:07:23;;;;;;;2.20;2.00;;;;;;;11.13;52.96;100433.79;143556;1271;108496;-74
2023/04/02 19:10:52;;;;;;;3.90;1.50;;;;;;;11.13;53.05;100433.45;143783;1282;108438;-73
2023/04/02 19:14:21;;;;;;;2.50;1.90;;;;;;;11.13;52.97;100441.11;143962;1270;108191;-74
2023/04/02 19:17:57;;;;;;;2.50;1.60;;;;;;;11.13;52.92;100440.92;143888;1267;108447;-72
2023/04/02 19:21:38;;;;;;;1.50;1.30;;;;;;;11.13;53.12;100447.02;144168;1256;106659;-71
2023/04/02 19:25:09;;;;;;;2.00;1.60;;;;;;;11.14;52.97;100431.89;144797;1257;108312;-76
2023/04/02 19:28:58;;;;;;;2.50;1.80;;;;;;;11.13;52.76;100439.02;144773;1259;107502;-71
2023/04/02 19:32:41;;;;;;;2.10;1.90;;;;;;;11.14;52.84;100443.03;144976;1261;107956;-71
2023/04/02 19:36:16;;;;;;;4.40;2.00;;;;;;;11.13;52.85;100442.48;144780;1259;107244;-74
2023/04/02 19:40:17;;;;;;;1.40;1.30;;;;;;;11.12;52.87;100444.56;144708;1262;108748;-73
2023/04/02 19:43:43;;;;;;;2.10;1.90;;;;;;;11.12;52.90;100447.88;144810;1258;106588;-75
2023/04/02 19:47:19;;;;;;;3.30;2.10;;;;;;;11.13;52.80;100449.63;144786;1262;108479;-85
2023/04/02 19:50:46;;;;;;;2.60;2.10;;;;;;;11.12;52.77;100448.05;146138;1257;95407;-75
2023/04/02 19:54:19;;;;;;;3.50;2.00;;;;;;;11.13;52.82;100451.70;144662;1264;108459;-77
2023/04/02 19:57:45;;;;;;;2.70;2.20;;;;;;;11.13;52.78;100457.62;144704;1264;107538;-73
2023/04/02 20:01:40;;;;;;;2.70;2.50;;;;;;;11.12;53.02;100457.44;144653;1257;108599;-73
2023/04/02 20:05:12;;;;;;;5.40;3.00;;;;;;;11.19;54.22;100461.59;144645;1260;109563;-72
2023/04/02 20:08:47;;;;;;;3.70;2.80;;;;;;;11.26;54.66;100464.17;144794;1258;108498;-74
2023/04/02 20:12:15;;;;;;;3.90;3.10;;;;;;;11.34;54.77;100467.49;144607;1265;109979;-73
2023/04/02 20:15:42;;;;;;;4.10;3.20;;;;;;;11.37;54.69;100470.51;144452;1261;96129;-81
2023/04/02 20:19:29;;;;;;;5.20;2.90;;;;;;;11.36;54.42;100470.50;144690;1264;107558;-80
2023/04/02 20:22:54;;;;;;;8.50;3.10;;;;;;;11.36;54.31;100469.45;144987;1262;96318;-77
2023/04/02 20:26:36;;;;;;;4.50;2.70;;;;;;;11.33;54.42;100473.38;144748;1260;108023;-79
2023/04/02 20:30:48;;;;;;;4.20;3.20;;;;;;;11.30;54.19;100480.80;144594;1260;109147;-79
2023/04/02 20:35:17;;;;;;;;;;;;;;;;;;;;;
2023/04/02 20:40:01;;;;;;;5.90;3.10;;;;;;;11.24;54.04;100486.42;144448;1265;109709;-80
2023/04/02 20:44:12;;;;;;;4.20;2.90;;;;;;;11.22;53.80;100488.97;143826;1271;108028;-78
2023/04/02 20:48:15;;;;;;;3.40;2.20;;;;;;;11.21;53.78;100494.52;143776;1269;108419;-78
2023/04/02 20:53:36;;;;;;;4.20;3.10;;;;;;;11.18;53.67;100497.25;143704;1270;109368;-77
2023/04/02 20:58:30;;;;;;;;;;;;;;;;;;;;;
2023/04/02 21:02:24;;;;;;;2.50;2.30;;;;;;;11.15;53.30;100507.77;142925;1274;108169;-74
2023/04/02 21:05:51;;;;;;;3.70;2.70;;;;;;;11.13;53.26;100513.47;142864;1274;108575;-74
2023/04/02 21:09:20;;;;;;;4.60;2.50;;;;;;;11.11;53.04;100514.65;142820;1273;96775;-73
2023/04/02 21:12:43;;;;;;;3.20;2.20;;;;;;;11.10;52.94;100519.69;142757;1276;108154;-78
2023/04/02 21:16:31;;;;;;;2.10;1.80;;;;;;;11.09;53.01;100524.35;142971;1276;108120;-74
2023/04/02 21:20:00;;;;;;;1.90;1.70;;;;;;;11.06;52.61;100521.48;143171;1273;108537;-76
2023/04/02 21:23:48;;;;;;;3.20;2.00;;;;;;;11.05;52.57;100525.64;144322;1268;107345;-74
2023/04/02 21:27:31;;;;;;;2.00;1.80;;;;;;;11.03;52.41;100529.92;144245;1267;108377;-74
2023/04/02 21:31:03;;;;;;;;;;;;;;;11.03;52.11;100531.48;144530;1256;108385;-82
2023/04/02 21:34:33;;;;;;;2.40;1.80;;;;;;;11.01;52.06;100529.36;144435;1257;107392;-79
2023/04/02 21:38:01;;;;;;;2.60;1.30;;;;;;;10.99;51.94;100533.14;144497;1260;108202;-79
2023/04/02 21:41:56;;;;;;;1.80;1.50;;;;;;;10.98;51.73;100534.67;144345;1267;108474;-80
2023/04/02 21:45:57;;;;;;;3.10;1.90;;;;;;;10.96;51.67;100536.54;144552;1261;108692;-80
2023/04/02 21:49:28;;;;;;;2.30;1.40;;;;;;;10.94;51.64;100538.77;144485;1256;107248;-80
2023/04/02 21:52:54;;;;;;;2.10;1.30;;;;;;;10.93;51.31;100540.13;144701;1258;108642;-79
2023/04/02 21:56:25;;;;;;;1.20;1.00;;;;;;;10.92;51.29;100548.45;144316;1262;109246;-79
2023/04/02 22:00:40;;;;;;;;;;;;;;;;;;;;;
2023/04/02 22:04:44;;;;;;;1.60;1.20;;;;;;;10.89;50.83;100559.49;144038;1271;105759;-82
2023/04/02 22:09:09;;;;;;;1.70;1.20;;;;;;;10.86;50.63;100564.46;144015;1270;107957;-80
2023/04/02 22:13:13;;;;;;;3.50;1.30;;;;;;;10.82;50.48;100566.80;143860;1266;106848;-77
2023/04/02 22:17:40;;;;;;;1.60;0.90;;;;;;;10.81;50.27;100575.99;143654;1271;108923;-82
2023/04/02 22:21:20;;;;;;;2.10;1.40;;;;;;;10.80;50.38;100580.10;143772;1271;108930;-82
2023/04/02 22:30:28;;;;;;;1.70;1.30;;;;;;;10.74;49.99;100584.51;143723;1270;108324;-79
2023/04/02 22:35:01;;;;;;;0.90;0.80;;;;;;;10.71;49.66;100585.27;143553;1276;108695;-80
2023/04/02 22:39:09;;;;;;;;;;;;;;;;;;;;;
2023/04/02 22:43:11;;;;;;;2.40;1.20;;;;;;;10.63;49.26;100594.48;143184;1279;109039;-80
2023/04/02 22:47:02;;;;;;;1.80;0.90;;;;;;;10.59;49.30;100596.44;143064;1281;106976;-81
2023/04/02 22:50:46;;;;;;;1.90;1.00;;;;;;;10.57;49.23;100599.87;143460;1270;107522;-80
2023/04/02 22:54:37;;;;;;;1.30;0.90;;;;;;;10.53;49.07;100603.77;143230;1272;108262;-78
2023/04/02 22:59:00;;;;;;;1.10;0.90;;;;;;;10.50;49.06;100599.84;143832;1265;107884;-81
2023/04/02 23:02:44;;;;;;;1.30;0.70;;;;;;;10.47;48.74;100601.50;144339;1262;107197;-81
2023/04/02 23:06:47;;;;;;;2.00;0.60;;;;;;;10.43;48.76;100598.80;144178;1267;107514;-78
2023/04/02 23:10:58;;;;;;;;;;;;;;;;;;;;;
2023/04/02 23:14:56;;;;;;;1.70;0.90;;;;;;;10.38;48.69;100601.27;143758;1262;108621;-80
2023/04/02 23:18:53;;;;;;;1.40;0.80;;;;;;;10.35;48.56;100605.02;144146;1264;107629;-80
2023/04/02 23:23:25;;;;;;;3.30;0.90;;;;;;;10.33;48.60;100611.36;144533;1257;108096;-80
2023/04/02 23:27:23;;;;;;;0.80;0.80;;;;;;;10.28;48.38;100615.23;144228;1266;109707;-79
2023/04/02 23:31:15;;;;;;;1.10;0.70;;;;;;;10.25;48.38;100620.16;143514;1268;107891;-77
2023/04/02 23:35:11;;;;;;;1.50;0.90;;;;;;;10.23;48.29;100621.65;143264;1277;108563;-81
2023/04/02 23:39:21;;;;;;;1.50;0.90;;;;;;;10.19;48.27;100621.53;143352;1273;107726;-78
2023/04/02 23:43:56;;;;;;;1.20;0.80;;;;;;;10.16;48.07;100621.80;143036;1274;110939;-81
2023/04/02 23:48:43;;;;;;;;;;;;;;;;;;;;;
2023/04/02 23:53:11;;;;;;;1.10;0.90;;;;;;;10.09;48.07;100633.73;143745;1270;108034;-80
2023/04/02 23:57:19;;;;;;;0.90;0.80;;;;;;;10.04;48.04;100629.61;143616;1272;108445;-79
